Latest Weather Observations for Glen Innes Airport

IDN60801

Issued at 7:32 am EST Friday 29 April 2016 (issued every 30 minutes, with the page automatically refreshed every 10 minutes)

About weather observations | Map of weather stations | Latest weather observations for NSW | Other Formats
Station Details ID: 056243 Name: GLEN INNES AIRPORT AWS Lat: -29.68 Lon: 151.69 Height: 1044.3 m
Data from the previous 72 hours. | See also: Recent months at Glen Innes Airport
Date/Time
EST
Temp
°C
App
Temp
°C
Dew
Point
Rel
Hum
%
Delta-T
°C
Wind Press
QNH
hPa
Press
MSL
hPa
Rain
since 9 am
mm
Dir
 
Spd
km/h
Gust
km/h
Spd
kts
Gust
kts
29/07:30am 9.4 6.3 8.9 97 0.3 ESE 15 20 8 11 1027.6 1024.8 0.2
29/07:00am 8.2 5.6 7.8 97 0.2 SE 11 17 6 9 1027.4 1024.5 0.2
29/06:30am 5.7 2.9 5.0 95 0.3 E 9 13 5 7 1026.9 1024.1 0.2
29/06:13am 5.2 1.5 4.3 94 0.4 E 13 15 7 8 1026.9 1024.1 0.2
29/06:00am 5.8 2.2 4.9 94 0.4 ESE 13 15 7 8 1026.7 1023.9 0.2
29/05:30am 6.6 3.5 5.6 93 0.5 ESE 11 13 6 7 1026.7 1023.9 0.2
29/05:18am 7.2 4.2 6.1 93 0.5 SE 11 13 6 7 1026.6 1023.7 0.2
29/05:00am 8.8 5.5 8.0 95 0.4 ESE 15 17 8 9 1026.6 1023.7 0.2
29/04:30am 9.0 5.7 8.2 95 0.4 ESE 15 17 8 9 1026.5 1023.6 0.0
29/04:00am 8.3 5.1 6.9 91 0.7 ESE 13 15 7 8 1026.2 1023.4 0.0
29/03:30am 10.3 7.2 8.9 91 0.7 E 15 19 8 10 1026.1 1023.3 0.0
29/03:25am 10.4 6.9 8.8 90 0.8 E 17 19 9 10 1026.1 1023.3 0.0
29/03:00am 11.7 9.0 10.3 91 0.8 E 15 20 8 11 1026.2 1023.4 0.0
29/02:30am 11.8 7.8 10.4 91 0.8 ESE 22 28 12 15 1026.4 1023.5 0.0
29/02:00am 11.0 8.3 10.4 96 0.3 ESE 15 19 8 10 1026.4 1023.5 0.0
29/01:58am 10.8 8.0 10.0 95 0.4 ESE 15 19 8 10 1026.4 1023.5 0.0
29/01:55am 10.3 7.4 9.5 95 0.4 ESE 15 17 8 9 1026.4 1023.5 0.0
29/01:41am 10.4 7.1 9.6 95 0.4 ESE 17 19 9 10 1026.6 1023.7 0.0
29/01:30am 10.0 6.9 8.9 93 0.6 ESE 15 19 8 10 1026.7 1023.9 0.0
29/01:09am 10.6 7.7 9.5 93 0.6 ESE 15 17 8 9 1027.0 1024.2 0.0
29/01:00am 11.0 8.2 9.9 93 0.6 ESE 15 19 8 10 1026.9 1024.1 0.0
29/12:30am 12.1 9.0 11.5 96 0.3 ESE 19 24 10 13 1026.8 1024.0 0.0
29/12:15am 11.5 8.6 10.9 96 0.3 ESE 17 20 9 11 1026.8 1024.0 0.0
29/12:00am 11.5 8.2 10.9 96 0.3 SE 19 24 10 13 1027.0 1024.2 0.0
 
Date/Time
EST
Temp
°C
App
Temp
°C
Dew
Point
Rel
Hum
%
Delta-T
°C
Wind Press
QNH
hPa
Press
MSL
hPa
Rain
since 9 am
mm
Dir
 
Spd
km/h
Gust
km/h
Spd
kts
Gust
kts
28/11:33pm 11.2 8.2 10.6 96 0.3 SE 17 22 9 12 1027.1 1024.3 0.0
28/11:30pm 10.9 8.2 10.3 96 0.3 SE 15 20 8 11 1027.2 1024.4 0.0
28/11:07pm 8.9 5.9 7.8 93 0.6 SE 13 15 7 8 1027.5 1024.6 0.0
28/11:00pm 9.0 6.4 7.8 92 0.6 SE 11 15 6 8 1027.4 1024.5 0.0
28/10:30pm 10.8 8.0 10.0 95 0.4 ESE 15 17 8 9 1027.4 1024.5 0.0
28/10:00pm 10.4 7.1 9.6 95 0.4 ESE 17 19 9 10 1027.5 1024.6 0.0
28/09:30pm 10.8 8.0 10.0 95 0.4 ESE 15 17 8 9 1027.8 1025.0 0.0
28/09:00pm 10.1 7.5 9.2 94 0.5 ESE 13 15 7 8 1027.7 1024.9 0.0
28/08:30pm 10.3 7.3 9.2 93 0.6 ESE 15 17 8 9 1027.5 1024.6 0.0
28/08:00pm 10.8 7.2 9.9 94 0.5 ESE 19 20 10 11 1027.2 1024.4 0.0
28/07:30pm 10.9 8.0 9.7 92 0.6 ESE 15 17 8 9 1027.2 1024.4 0.0
28/07:00pm 11.5 8.8 10.4 93 0.6 ESE 15 19 8 10 1027.0 1024.2 0.0
28/06:30pm 11.7 8.9 10.1 90 0.9 ESE 15 15 8 8 1026.6 1023.7 0.0
28/06:00pm 12.4 9.7 10.3 87 1.1 ESE 15 17 8 9 1026.5 1023.6 0.0
28/05:30pm 14.2 11.3 11.0 81 1.8 ESE 17 20 9 11 1026.2 1023.4 0.0
28/05:00pm 16.7 13.4 10.8 68 3.3 E 19 26 10 14 1026.0 1023.2 0.0
28/04:30pm 19.0 16.5 11.1 60 4.5 ENE 15 19 8 10 1025.7 1022.8 0.0
28/04:00pm 17.8 15.7 11.1 65 3.8 ENE 13 15 7 8 1025.8 1023.0 0.0
28/03:30pm 19.8 16.3 11.0 57 5.1 ENE 20 28 11 15 1025.7 1022.8 0.0
28/03:00pm 20.1 17.5 10.8 55 5.3 N 15 20 8 11 1025.6 1022.7 0.0
28/02:30pm 19.6 16.7 10.9 57 5.0 NNE 17 24 9 13 1025.5 1022.6 0.0
28/02:00pm 20.0 18.2 10.7 55 5.3 NE 11 17 6 9 1025.7 1022.8 0.0
28/01:30pm 19.8 18.4 11.0 57 5.1 NE 9 17 5 9 1025.8 1023.0 0.0
28/01:00pm 20.2 17.7 10.9 55 5.3 NNE 15 24 8 13 1025.9 1023.1 0.0
28/12:30pm 18.5 16.2 10.6 60 4.5 NE 13 20 7 11 1026.6 1023.7 0.0
28/12:00pm 18.4 15.4 10.8 61 4.3 NE 17 24 9 13 1026.9 1024.1 0.0
28/11:30am 18.5 15.5 10.8 61 4.4 ENE 17 28 9 15 1027.2 1024.4 0.0
28/11:00am 18.9 17.1 12.2 65 3.9 E 13 20 7 11 1027.7 1024.9 0.0
28/10:30am 17.9 15.6 10.5 62 4.2 NE 13 24 7 13 1028.1 1025.3 0.0
28/10:00am 16.6 13.0 10.7 68 3.3 ENE 20 28 11 15 1028.2 1025.4 0.0
28/09:30am 15.5 12.0 10.9 74 2.6 ENE 20 28 11 15 1028.3 1025.6 0.0
28/09:27am 15.8 12.0 11.2 74 2.6 ENE 22 30 12 16 1028.3 1025.6 0.0
28/09:00am 15.4 12.0 11.2 76 2.4 ENE 20 28 11 15 1028.2 1025.4 0.0
28/08:30am 15.0 12.3 11.6 80 1.9 E 17 20 9 11 1027.9 1025.1 0.0
28/08:00am 14.1 11.9 12.0 87 1.2 E 15 19 8 10 1027.8 1025.0 0.0
28/07:30am 13.2 11.3 11.8 91 0.8 ESE 13 17 7 9 1027.6 1024.8 0.0
28/07:00am 12.3 11.5 11.2 93 0.6 SE 6 7 3 4 1027.4 1024.5 0.0
28/06:30am 11.6 9.7 10.5 93 0.6 ESE 11 13 6 7 1026.9 1024.1 0.0
28/06:00am 10.8 9.1 9.9 94 0.5 ESE 9 11 5 6 1026.7 1023.9 0.0
28/05:30am 10.9 8.0 9.5 91 0.7 E 15 20 8 11 1026.4 1023.5 0.0
28/05:00am 11.6 8.1 10.3 92 0.7 E 19 26 10 14 1026.2 1023.4 0.0
28/04:30am 11.8 8.4 10.5 92 0.7 ESE 19 24 10 13 1026.1 1023.3 0.0
28/04:00am 11.5 8.5 10.6 94 0.5 ESE 17 24 9 13 1026.1 1023.3 0.0
28/03:30am 11.6 10.1 10.7 94 0.5 E 9 13 5 7 1026.4 1023.5 0.0
28/03:00am 11.5 9.3 10.7 95 0.4 ESE 13 20 7 11 1026.4 1023.5 0.0
28/02:30am 11.1 9.1 10.3 95 0.4 SE 11 15 6 8 1026.7 1023.9 0.0
28/02:00am 11.1 8.4 10.5 96 0.3 SE 15 19 8 10 1026.8 1024.0 0.0
28/01:49am 11.0 7.9 10.4 96 0.3 SE 17 24 9 13 1026.8 1024.0 0.0
28/01:31am 10.8 8.1 10.2 96 0.3 ESE 15 20 8 11 1026.8 1024.0 0.0
28/01:30am 10.8 8.1 10.2 96 0.3 ESE 15 19 8 10 1026.8 1024.0 0.0
28/01:00am 10.7 7.5 10.1 96 0.3 SE 17 22 9 12 1027.1 1024.3 0.0
28/12:33am 10.5 8.1 9.9 96 0.3 SE 13 17 7 9 1027.4 1024.5 0.0
28/12:30am 10.4 7.9 9.8 96 0.3 SE 13 17 7 9 1027.5 1024.6 0.0
28/12:00am 8.4 6.2 7.8 96 0.3 SSE 9 11 5 6 1027.8 1025.0 0.0
 
Date/Time
EST
Temp
°C
App
Temp
°C
Dew
Point
Rel
Hum
%
Delta-T
°C
Wind Press
QNH
hPa
Press
MSL
hPa
Rain
since 9 am
mm
Dir
 
Spd
km/h
Gust
km/h
Spd
kts
Gust
kts
27/11:48pm 7.7 4.9 7.1 96 0.3 SE 11 15 6 8 1027.8 1025.0 0.0
27/11:35pm 6.3 3.6 5.6 95 0.3 SE 9 15 5 8 1027.9 1025.1 0.0
27/11:30pm 6.0 3.2 5.3 95 0.3 ESE 9 11 5 6 1027.9 1025.1 0.0
27/11:00pm 5.9 3.6 4.7 92 0.5 SE 6 9 3 5 1028.2 1025.4 0.0
27/10:37pm 7.2 5.2 6.3 94 0.4 SE 6 9 3 5 1028.2 1025.4 0.0
27/10:30pm 7.4 5.5 6.7 95 0.3 SE 6 7 3 4 1028.3 1025.6 0.0
27/10:15pm 7.0 4.4 6.1 94 0.4 SSE 9 17 5 9 1028.3 1025.6 0.0
27/10:00pm 6.4 4.1 5.0 91 0.6 SE 6 7 3 4 1028.2 1025.4 0.0
27/09:30pm 7.6 5.1 6.4 92 0.6 SSE 9 11 5 6 1028.1 1025.3 0.0
27/09:00pm 7.7 6.9 6.3 91 0.7 CALM 0 6 0 3 1028.1 1025.3 0.0
27/08:30pm 7.8 4.3 5.6 86 1.1 SE 13 15 7 8 1028.1 1025.3 0.0
27/08:00pm 8.7 5.6 7.2 90 0.7 ESE 13 15 7 8 1027.8 1025.0 0.0
27/07:30pm 7.6 4.4 5.2 85 1.1 ESE 11 13 6 7 1027.6 1024.8 0.0
27/07:00pm 9.1 6.5 6.2 82 1.4 E 9 11 5 6 1027.6 1024.8 0.0
27/06:30pm 9.8 6.5 6.2 78 1.8 ENE 13 15 7 8 1027.1 1024.3 0.0
27/06:00pm 11.0 7.6 6.0 71 2.5 ENE 13 15 7 8 1026.8 1024.0 0.0
27/05:30pm 14.1 10.2 6.9 62 3.7 ENE 17 24 9 13 1026.4 1023.5 0.0
27/05:00pm 15.8 11.4 7.6 58 4.3 NE 20 24 11 13 1026.1 1023.3 0.0
27/04:30pm 16.9 12.1 7.5 54 5.0 ENE 22 30 12 16 1025.9 1023.1 0.0
27/04:00pm 17.5 13.6 8.6 56 4.8 E 19 26 10 14 1025.9 1023.1 0.0
27/03:30pm 18.8 14.1 7.6 48 6.0 ESE 22 32 12 17 1025.8 1023.0 0.0
27/03:00pm 19.1 14.7 7.5 47 6.2 ENE 20 28 11 15 1025.6 1022.7 0.0
27/02:30pm 19.2 13.5 8.2 49 6.0 ESE 28 39 15 21 1025.5 1022.6 0.0
27/02:00pm 19.3 15.0 8.0 48 6.1 ENE 20 30 11 16 1025.7 1022.8 0.0
27/01:30pm 18.9 14.8 8.6 51 5.6 E 20 32 11 17 1025.9 1023.1 0.0
27/01:00pm 18.6 14.0 8.3 51 5.6 ENE 22 35 12 19 1026.4 1023.5 0.0
27/12:30pm 18.2 12.8 7.9 51 5.5 E 26 39 14 21 1026.7 1023.9 0.0
27/12:00pm 18.4 12.7 8.4 52 5.4 E 28 39 15 21 1027.1 1024.3 0.0
27/11:30am 18.1 12.5 8.9 55 5.0 E 28 35 15 19 1027.5 1024.6 0.0
27/11:00am 16.1 10.5 8.6 61 4.0 E 28 35 15 19 1027.6 1024.8 0.0
27/10:30am 16.9 11.0 10.5 66 3.6 E 32 43 17 23 1028.0 1025.2 0.0
27/10:00am 15.1 9.1 10.1 72 2.7 ESE 32 39 17 21 1028.3 1025.6 0.0
27/09:30am 14.3 9.4 10.1 76 2.3 E 26 39 14 21 1028.5 1025.7 0.0
27/09:00am 14.5 9.8 10.7 78 2.1 ESE 26 35 14 19 1028.5 1025.7 0.2
27/08:30am 13.5 7.7 9.4 76 2.2 E 30 39 16 21 1028.5 1025.7 0.2
27/08:00am 12.7 7.4 9.7 82 1.6 E 28 39 15 21 1028.3 1025.6 0.2
27/07:30am 11.9 7.0 9.8 87 1.1 E 26 39 14 21 1027.9 1025.1 0.2
27/07:13am 11.9 7.5 10.3 90 0.9 ESE 24 32 13 17 1027.7 1024.9 0.2
27/07:00am 11.7 7.2 10.1 90 0.9 ESE 24 32 13 17 1027.7 1024.9 0.2
27/06:31am 11.5 7.4 10.2 92 0.7 ESE 22 33 12 18 1027.4 1024.5 0.2
27/06:30am 11.4 7.3 10.1 92 0.7 ESE 22 33 12 18 1027.4 1024.5 0.2
27/06:08am 11.5 7.8 10.2 92 0.7 ESE 20 28 11 15 1027.2 1024.4 0.2
27/06:00am 11.7 7.7 10.3 91 0.8 ESE 22 30 12 16 1027.1 1024.3 0.2
27/05:30am 11.5 6.2 9.9 90 0.9 ESE 28 41 15 22 1027.0 1024.2 0.2
27/05:00am 11.8 6.8 9.7 87 1.1 ESE 26 35 14 19 1026.9 1024.1 0.0
27/04:30am 11.6 6.2 9.5 87 1.1 E 28 35 15 19 1027.0 1024.2 0.0
27/04:00am 11.9 5.7 10.0 88 1.0 ESE 33 46 18 25 1026.6 1023.7 0.0
27/03:56am 12.0 6.0 10.2 89 1.0 ESE 32 46 17 25 1026.6 1023.7 0.0
27/03:40am 11.8 7.1 10.5 92 0.7 ESE 26 33 14 18 1026.8 1024.0 0.0
27/03:30am 12.0 7.2 10.2 89 1.0 ESE 26 35 14 19 1026.9 1024.1 0.0
27/03:00am 12.0 7.9 10.2 89 1.0 ESE 22 32 12 17 1026.9 1024.1 0.0
27/02:30am 11.7 7.2 9.9 89 1.0 ESE 24 35 13 19 1026.9 1024.1 0.0
27/02:24am 11.7 6.4 9.9 89 1.0 ESE 28 39 15 21 1026.9 1024.1 0.0
27/02:00am 11.5 7.9 9.8 89 0.9 ESE 19 28 10 15 1027.1 1024.3 0.0
27/01:46am 11.5 6.9 9.8 89 0.9 ESE 24 35 13 19 1027.1 1024.3 0.0
27/01:30am 11.6 4.9 9.7 88 1.0 E 35 46 19 25 1027.1 1024.3 0.0
27/01:00am 11.8 5.9 10.4 91 0.8 ESE 32 41 17 22 1027.5 1024.6 0.0
27/12:46am 11.7 6.1 10.1 90 0.9 ESE 30 43 16 23 1027.7 1024.9 0.0
27/12:33am 12.0 6.9 10.7 92 0.7 ESE 28 41 15 22 1027.9 1025.1 0.0
27/12:30am 12.0 7.3 10.6 91 0.8 ESE 26 41 14 22 1027.9 1025.1 0.0
27/12:00am 12.3 6.7 10.2 87 1.1 ESE 30 43 16 23 1028.0 1025.2 0.0
 
Date/Time
EST
Temp
°C
App
Temp
°C
Dew
Point
Rel
Hum
%
Delta-T
°C
Wind Press
QNH
hPa
Press
MSL
hPa
Rain
since 9 am
mm
Dir
 
Spd
km/h
Gust
km/h
Spd
kts
Gust
kts
26/11:30pm 12.3 6.1 10.2 87 1.1 ESE 33 52 18 28 1028.2 1025.4 0.0
26/11:25pm 12.3 6.3 10.2 87 1.1 ESE 32 52 17 28 1028.2 1025.4 0.0
26/11:00pm 12.3 7.1 10.4 88 1.0 E 28 37 15 20 1028.5 1025.7 0.0
26/10:30pm 12.3 7.9 10.4 88 1.0 ESE 24 35 13 19 1028.6 1025.8 0.0
26/10:00pm 11.8 7.7 10.2 90 0.9 ESE 22 30 12 16 1028.7 1025.9 0.0
26/09:30pm 11.9 7.0 10.0 88 1.0 ESE 26 35 14 19 1028.8 1026.0 0.0
26/09:00pm 12.0 6.0 10.2 89 1.0 ESE 32 41 17 22 1028.8 1026.0 0.0
26/08:30pm 11.9 7.4 10.1 89 1.0 ESE 24 33 13 18 1029.0 1026.2 0.0
26/08:24pm 11.9 7.0 10.1 89 1.0 ESE 26 37 14 20 1029.0 1026.2 0.0
26/08:00pm 12.2 8.6 10.6 90 0.9 ESE 20 28 11 15 1028.9 1026.1 0.0
26/07:59pm 12.3 8.9 10.7 90 0.9 ESE 19 28 10 15 1028.8 1026.0 0.0
26/07:50pm 12.7 9.6 10.2 85 1.4 E 17 24 9 13 1028.7 1025.9 0.0
26/07:30pm 12.5 9.3 9.9 84 1.4 E 17 28 9 15 1028.8 1026.0 0.0
26/07:00pm 13.3 9.6 10.1 81 1.7 ESE 20 26 11 14 1028.8 1026.0 0.0
26/06:30pm 13.7 10.8 10.9 83 1.6 E 17 22 9 12 1028.7 1025.9 0.0
26/06:00pm 14.2 11.5 10.4 78 2.1 ESE 15 20 8 11 1028.5 1025.7 0.0
26/05:30pm 14.6 11.1 10.2 75 2.4 ESE 19 24 10 13 1028.5 1025.7 0.0
26/05:00pm 15.0 11.3 10.2 73 2.6 ESE 20 28 11 15 1028.2 1025.4 0.0
26/04:30pm 15.5 10.7 10.3 71 2.9 ESE 26 35 14 19 1027.9 1025.1 0.0
26/04:00pm 16.5 12.0 9.9 65 3.6 ESE 24 32 13 17 1027.7 1024.9 0.0
26/03:30pm 16.2 10.6 10.1 67 3.4 E 30 39 16 21 1027.4 1024.5 0.0
26/03:00pm 16.4 11.8 10.9 70 3.1 ESE 26 35 14 19 1027.5 1024.6 0.0
26/02:30pm 16.8 11.6 10.4 66 3.6 ESE 28 41 15 22 1027.2 1024.4 0.0
26/02:00pm 16.6 10.7 10.5 67 3.4 ESE 32 43 17 23 1027.2 1024.4 0.0
26/01:30pm 16.8 10.3 10.4 66 3.6 ESE 35 48 19 26 1027.2 1024.4 0.0
26/01:00pm 17.0 9.4 9.2 60 4.3 ESE 39 50 21 27 1027.1 1024.3 0.0
26/12:46pm 18.1 10.6 9.5 57 4.8 ESE 39 57 21 31 1027.1 1024.3 0.0
26/12:30pm 17.1 9.4 10.0 63 4.0 E 41 56 22 30 1027.5 1024.6 0.0
26/12:18pm 18.1 10.9 10.7 62 4.2 E 39 57 21 31 1027.5 1024.6 0.0
26/12:00pm 18.5 10.8 10.3 59 4.6 E 41 57 22 31 1027.7 1024.9 0.0
26/11:30am 17.2 9.1 10.1 63 4.0 ESE 43 54 23 29 1028.2 1025.4 0.0
26/11:00am 17.0 9.2 9.9 63 3.9 E 41 52 22 28 1028.7 1025.9 0.0
26/10:32am 17.5 10.5 11.1 66 3.6 ESE 39 57 21 31 1029.0 1026.2 0.0
26/10:30am 17.1 9.5 10.5 65 3.7 ESE 41 57 22 31 1029.0 1026.2 0.0
26/10:09am 16.0 9.2 10.5 70 3.1 ESE 37 56 20 30 1029.0 1026.2 0.0
26/10:00am 15.5 7.8 10.1 70 3.0 ESE 41 56 22 30 1029.0 1026.2 0.0
26/09:30am 14.1 7.1 10.1 77 2.2 ESE 37 50 20 27 1029.1 1026.3 0.0
26/09:12am 13.6 6.2 9.8 78 2.1 ESE 39 57 21 31 1028.9 1026.1 0.0
26/09:00am 13.5 5.4 9.9 79 1.9 ESE 43 56 23 30 1028.8 1026.0 1.0
26/08:30am 13.6 6.2 10.0 79 2.0 ESE 39 57 21 31 1028.5 1025.7 1.0
26/08:01am 13.1 5.6 9.4 78 2.0 ESE 39 57 21 31 1028.0 1025.2 1.0
26/08:00am 13.0 5.9 9.4 79 1.9 ESE 37 54 20 29 1028.1 1025.3 1.0
26/07:57am 12.9 6.1 9.2 78 2.0 ESE 35 54 19 29 1028.0 1025.2 1.0

Other Formats:

Comma delimited format used in spreadsheet applications
http://www.bom.gov.au/fwo/IDN60801/IDN60801.94588.axf

JavaScript Object Notation format (JSON) in row-major order
http://www.bom.gov.au/fwo/IDN60801/IDN60801.94588.json